createdAt,value
2018-08-20T00:01:03.495Z,0.00
2018-08-20T00:02:10.001Z,0.00
2018-08-20T00:03:14.536Z,0.00
2018-08-20T00:04:20.014Z,0.00
2018-08-20T00:05:26.541Z,0.00
2018-08-20T00:06:31.064Z,0.00
2018-08-20T00:07:37.562Z,0.00
2018-08-20T00:08:42.087Z,0.00
2018-08-20T00:09:47.594Z,0.00
2018-08-20T00:10:54.146Z,0.00
2018-08-20T00:11:58.652Z,0.00
2018-08-20T00:13:05.164Z,0.00
2018-08-20T00:14:09.685Z,0.00
2018-08-20T00:15:15.186Z,0.00
2018-08-20T00:16:21.709Z,0.00
2018-08-20T00:17:26.245Z,0.00
2018-08-20T00:18:32.750Z,0.00
2018-08-20T00:19:37.249Z,0.00
2018-08-20T00:20:42.790Z,0.00
2018-08-20T00:21:49.304Z,0.00
2018-08-20T00:22:53.826Z,0.00
2018-08-20T00:24:00.338Z,0.00
2018-08-20T00:25:04.859Z,0.00
2018-08-20T00:26:10.382Z,0.00
2018-08-20T00:27:16.907Z,0.00
2018-08-20T00:28:21.417Z,0.00
2018-08-20T00:29:27.939Z,0.00
2018-08-20T00:30:32.452Z,0.00
2018-08-20T00:31:37.980Z,0.00
2018-08-20T00:32:44.483Z,0.00
2018-08-20T00:33:49.000Z,0.00
2018-08-20T00:34:55.539Z,0.00
2018-08-20T00:36:00.040Z,0.00
2018-08-20T00:37:05.561Z,0.00
2018-08-20T00:38:12.072Z,0.00
2018-08-20T00:39:16.622Z,0.00
2018-08-20T00:40:23.127Z,0.00
2018-08-20T00:41:27.646Z,0.00
2018-08-20T00:42:33.161Z,0.00
2018-08-20T00:43:39.696Z,0.00
2018-08-20T00:44:44.179Z,0.00
2018-08-20T00:45:50.720Z,0.00
2018-08-20T00:46:55.237Z,0.00
2018-08-20T00:48:00.747Z,0.00
2018-08-20T00:49:07.258Z,0.00
2018-08-20T00:50:11.772Z,0.00
2018-08-20T00:51:18.292Z,0.00
2018-08-20T00:52:22.796Z,0.00
2018-08-20T00:53:28.343Z,0.00
2018-08-20T00:54:34.851Z,0.00
2018-08-20T00:55:39.350Z,0.00
2018-08-20T00:56:45.898Z,0.00
2018-08-20T00:57:50.394Z,0.00
2018-08-20T00:58:55.934Z,0.00
2018-08-20T01:00:02.437Z,0.00
2018-08-20T01:01:06.962Z,0.00
2018-08-20T01:02:13.516Z,0.00
2018-08-20T01:03:17.980Z,0.00
2018-08-20T01:04:23.531Z,0.00
2018-08-20T01:05:30.045Z,0.00
2018-08-20T01:06:34.534Z,0.00
2018-08-20T01:07:41.073Z,0.00
2018-08-20T01:08:45.567Z,0.00
2018-08-20T01:09:51.097Z,0.00
2018-08-20T01:10:57.619Z,0.00
2018-08-20T01:12:02.138Z,0.00
2018-08-20T01:13:08.648Z,0.00
2018-08-20T01:14:13.162Z,0.00
2018-08-20T01:15:19.220Z,0.00
2018-08-20T01:16:25.213Z,0.00
2018-08-20T01:17:29.715Z,0.00
2018-08-20T01:18:36.257Z,0.00
2018-08-20T01:19:40.748Z,0.00
2018-08-20T01:20:46.290Z,0.00
2018-08-20T01:21:52.811Z,0.00
2018-08-20T01:22:57.334Z,0.00
2018-08-20T01:24:03.850Z,0.00
2018-08-20T01:25:08.354Z,0.00
2018-08-20T01:26:13.887Z,0.00
2018-08-20T01:27:20.418Z,0.00
2018-08-20T01:28:24.907Z,0.00
2018-08-20T01:29:31.454Z,0.00
2018-08-20T01:30:35.945Z,0.00
2018-08-20T01:31:41.452Z,0.00
2018-08-20T01:32:47.987Z,0.00
2018-08-20T01:33:52.499Z,0.00
2018-08-20T01:34:59.024Z,0.00
2018-08-20T01:36:03.532Z,0.00
2018-08-20T01:37:09.054Z,0.00
2018-08-20T01:38:15.566Z,0.00
2018-08-20T01:39:20.070Z,0.00
2018-08-20T01:40:26.613Z,0.00
2018-08-20T01:41:31.120Z,0.00
2018-08-20T01:42:36.646Z,0.00
2018-08-20T01:43:43.184Z,0.00
2018-08-20T01:44:47.682Z,0.00
2018-08-20T01:45:54.215Z,0.00
2018-08-20T01:46:58.714Z,0.00
2018-08-20T01:48:04.212Z,0.00
2018-08-20T01:49:10.732Z,0.00
2018-08-20T01:50:15.267Z,0.00
2018-08-20T01:51:21.810Z,0.00
2018-08-20T01:52:26.309Z,0.00
2018-08-20T01:53:31.814Z,0.00
2018-08-20T01:54:38.350Z,0.00
2018-08-20T01:55:42.870Z,0.00
2018-08-20T01:56:49.391Z,0.00
2018-08-20T01:57:53.897Z,0.00
2018-08-20T01:58:59.418Z,0.00
2018-08-20T02:00:05.930Z,0.00
2018-08-20T02:01:10.449Z,0.00
2018-08-20T02:02:16.970Z,0.00
2018-08-20T02:03:21.474Z,0.00
2018-08-20T02:04:27.005Z,0.00
2018-08-20T02:05:33.529Z,0.00
2018-08-20T02:06:38.051Z,0.00
2018-08-20T02:07:44.567Z,0.00
2018-08-20T02:08:49.063Z,0.00
2018-08-20T02:09:54.600Z,0.00
2018-08-20T02:11:01.130Z,0.00
2018-08-20T02:12:05.628Z,0.00
2018-08-20T02:13:12.137Z,0.00
2018-08-20T02:14:16.681Z,0.00
2018-08-20T02:15:22.167Z,0.00
2018-08-20T02:16:28.709Z,0.00
2018-08-20T02:17:33.231Z,0.00
2018-08-20T02:18:39.745Z,0.00
2018-08-20T02:19:44.249Z,0.00
2018-08-20T02:20:49.767Z,0.00
2018-08-20T02:21:56.305Z,0.00
2018-08-20T02:23:00.809Z,0.00
2018-08-20T02:24:07.327Z,0.00
2018-08-20T02:25:11.848Z,0.00
2018-08-20T02:26:17.363Z,0.00
2018-08-20T02:27:23.896Z,0.00
2018-08-20T02:28:28.417Z,0.00
2018-08-20T02:29:34.904Z,0.00
2018-08-20T02:30:39.437Z,0.00
2018-08-20T02:31:44.932Z,0.00
2018-08-20T02:32:51.491Z,0.00
2018-08-20T02:33:55.975Z,0.00
2018-08-20T02:35:02.511Z,16.00
2018-08-20T02:36:07.014Z,20.00
2018-08-20T02:37:12.550Z,20.00
2018-08-20T02:38:19.067Z,20.00
2018-08-20T02:39:23.604Z,20.00
2018-08-20T02:40:30.102Z,16.00
2018-08-20T02:41:34.606Z,16.00
2018-08-20T02:42:40.131Z,16.00
2018-08-20T02:43:46.657Z,16.00
2018-08-20T02:44:51.177Z,16.00
2018-08-20T02:45:57.697Z,16.00
2018-08-20T02:47:02.200Z,16.00
2018-08-20T02:48:07.727Z,16.00
2018-08-20T02:49:14.257Z,16.00
2018-08-20T02:50:18.759Z,16.00
2018-08-20T02:51:25.297Z,16.00
2018-08-20T02:52:29.806Z,16.00
2018-08-20T02:53:35.302Z,16.00
2018-08-20T02:54:41.842Z,16.00
2018-08-20T02:55:46.353Z,16.00
2018-08-20T02:56:52.864Z,16.00
2018-08-20T02:57:57.376Z,16.00
2018-08-20T02:59:02.915Z,0.00
2018-08-20T03:00:09.434Z,0.00
2018-08-20T03:01:13.961Z,0.00
2018-08-20T03:02:20.471Z,0.00
2018-08-20T03:03:24.966Z,0.00
2018-08-20T03:04:30.506Z,0.00
2018-08-20T03:05:37.015Z,0.00
2018-08-20T03:06:41.523Z,0.00
2018-08-20T03:07:48.050Z,0.00
2018-08-20T03:08:52.570Z,0.00
2018-08-20T03:09:58.097Z,0.00
2018-08-20T03:11:04.616Z,0.00
2018-08-20T03:12:09.116Z,0.00
2018-08-20T03:13:15.635Z,0.00
2018-08-20T03:14:20.168Z,0.00
2018-08-20T03:15:25.671Z,0.00
2018-08-20T03:16:32.258Z,0.00
2018-08-20T03:17:36.714Z,0.00
2018-08-20T03:18:43.232Z,0.00
2018-08-20T03:19:47.747Z,0.00
2018-08-20T03:20:53.265Z,0.00
2018-08-20T03:21:59.817Z,0.00
2018-08-20T03:23:04.317Z,0.00
2018-08-20T03:24:10.839Z,0.00
2018-08-20T03:25:15.355Z,0.00
2018-08-20T03:26:20.880Z,0.00
2018-08-20T03:27:27.382Z,0.00
2018-08-20T03:28:31.885Z,0.00
2018-08-20T03:29:38.429Z,0.00
2018-08-20T03:30:42.919Z,0.00
2018-08-20T03:31:48.446Z,0.00
2018-08-20T03:32:54.967Z,0.00
2018-08-20T03:33:59.478Z,0.00
2018-08-20T03:35:06.013Z,0.00
2018-08-20T03:36:10.520Z,0.00
2018-08-20T03:37:16.060Z,0.00
2018-08-20T03:38:22.575Z,0.00
2018-08-20T03:39:27.075Z,0.00
2018-08-20T03:40:33.592Z,0.00
2018-08-20T03:41:38.124Z,0.00
2018-08-20T03:42:43.622Z,0.00
2018-08-20T03:43:50.148Z,0.00
2018-08-20T03:44:54.658Z,0.00
2018-08-20T03:46:01.172Z,0.00
2018-08-20T03:47:05.699Z,0.00
2018-08-20T03:48:11.254Z,0.00
2018-08-20T03:49:17.737Z,0.00
2018-08-20T03:50:22.237Z,0.00
2018-08-20T03:51:28.772Z,0.00
2018-08-20T03:52:33.278Z,0.00
2018-08-20T03:53:38.805Z,0.00
2018-08-20T03:54:45.332Z,0.00
2018-08-20T03:55:49.831Z,0.00
2018-08-20T03:56:56.360Z,0.00
2018-08-20T03:58:00.860Z,0.00
2018-08-20T03:59:06.461Z,0.00
2018-08-20T04:00:12.910Z,0.00
2018-08-20T04:01:17.424Z,0.00
2018-08-20T04:02:23.961Z,0.00
2018-08-20T04:03:28.449Z,0.00
2018-08-20T04:04:33.965Z,0.00
2018-08-20T04:05:40.499Z,0.00
2018-08-20T04:06:45.013Z,0.00
2018-08-20T04:07:51.538Z,0.00
2018-08-20T04:08:56.038Z,0.00
2018-08-20T04:10:01.566Z,0.00
2018-08-20T04:11:08.092Z,0.00
2018-08-20T04:12:12.623Z,4.00
2018-08-20T04:13:19.117Z,4.00
2018-08-20T04:14:23.652Z,4.00
2018-08-20T04:15:29.155Z,0.00
2018-08-20T04:16:35.685Z,0.00
2018-08-20T04:17:40.197Z,0.00
2018-08-20T04:18:46.718Z,0.00
2018-08-20T04:19:51.223Z,4.00
2018-08-20T04:20:56.752Z,4.00
2018-08-20T04:22:03.282Z,4.00
2018-08-20T04:23:07.775Z,0.00
2018-08-20T04:24:14.287Z,4.00
2018-08-20T04:25:18.811Z,4.00
2018-08-20T04:26:24.323Z,4.00
2018-08-20T04:27:30.862Z,4.00
2018-08-20T04:28:35.381Z,4.00
2018-08-20T04:29:41.878Z,4.00
2018-08-20T04:30:46.474Z,8.00
2018-08-20T04:31:51.921Z,4.00
2018-08-20T04:32:58.435Z,8.00
2018-08-20T04:34:02.964Z,8.00
2018-08-20T04:35:09.468Z,8.00
2018-08-20T04:36:14.007Z,8.00
2018-08-20T04:37:19.519Z,8.00
2018-08-20T04:38:26.034Z,8.00
2018-08-20T04:39:30.520Z,12.00
2018-08-20T04:40:37.072Z,8.00
2018-08-20T04:41:41.571Z,12.00
2018-08-20T04:42:47.097Z,12.00
2018-08-20T04:43:53.635Z,12.00
2018-08-20T04:44:58.138Z,12.00
2018-08-20T04:46:04.694Z,12.00
2018-08-20T04:47:09.175Z,12.00
2018-08-20T04:48:14.675Z,12.00
2018-08-20T04:49:21.215Z,12.00
2018-08-20T04:50:25.791Z,12.00
2018-08-20T04:51:32.338Z,12.00
2018-08-20T04:52:36.762Z,12.00
2018-08-20T04:53:42.266Z,12.00
2018-08-20T04:54:48.791Z,16.00
2018-08-20T04:55:53.312Z,16.00
2018-08-20T04:56:59.827Z,16.00
2018-08-20T04:58:04.338Z,20.00
2018-08-20T04:59:09.856Z,20.00
2018-08-20T05:00:16.389Z,20.00
2018-08-20T05:01:20.896Z,20.00
2018-08-20T05:02:27.433Z,24.00
2018-08-20T05:03:31.946Z,28.00
2018-08-20T05:04:37.480Z,24.00
2018-08-20T05:05:43.963Z,28.00
2018-08-20T05:06:48.480Z,32.00
2018-08-20T05:07:55.016Z,32.00
2018-08-20T05:08:59.583Z,36.00
2018-08-20T05:10:05.053Z,36.00
2018-08-20T05:11:11.579Z,32.00
2018-08-20T05:12:16.094Z,32.00
2018-08-20T05:13:22.587Z,32.00
2018-08-20T05:14:27.111Z,40.00
2018-08-20T05:15:32.639Z,40.00
2018-08-20T05:16:39.136Z,40.00
2018-08-20T05:17:43.664Z,40.00
2018-08-20T05:18:50.241Z,36.00
2018-08-20T05:19:54.703Z,40.00
2018-08-20T05:21:00.218Z,40.00
2018-08-20T05:22:06.763Z,40.00
2018-08-20T05:23:11.258Z,44.00
2018-08-20T05:24:17.792Z,44.00
2018-08-20T05:25:22.287Z,48.00
2018-08-20T05:26:27.803Z,48.00
2018-08-20T05:27:34.333Z,44.00
2018-08-20T05:28:38.832Z,44.00
2018-08-20T05:29:45.382Z,44.00
2018-08-20T05:30:49.894Z,44.00
2018-08-20T05:31:55.383Z,48.00
2018-08-20T05:33:01.933Z,48.00
2018-08-20T05:34:06.443Z,36.00
2018-08-20T05:35:12.949Z,24.00
2018-08-20T05:36:17.468Z,48.00
2018-08-20T05:37:22.990Z,48.00
2018-08-20T05:38:29.510Z,52.00
2018-08-20T05:39:34.027Z,48.00
2018-08-20T05:40:40.537Z,52.00
2018-08-20T05:41:45.052Z,52.00
2018-08-20T05:42:50.563Z,56.00
2018-08-20T05:43:57.107Z,56.00
2018-08-20T05:45:01.605Z,56.00
2018-08-20T05:46:08.124Z,60.00
2018-08-20T05:47:12.637Z,64.00
2018-08-20T05:48:18.176Z,64.00
2018-08-20T05:49:24.701Z,60.00
2018-08-20T05:50:29.193Z,56.00
2018-08-20T05:51:35.724Z,52.00
2018-08-20T05:52:40.336Z,56.00
2018-08-20T05:53:45.738Z,64.00
2018-08-20T05:54:52.310Z,56.00
2018-08-20T05:55:56.767Z,60.00
2018-08-20T05:57:03.287Z,68.00
2018-08-20T05:58:07.805Z,76.00
2018-08-20T05:59:13.380Z,80.00
2018-08-20T06:00:19.848Z,76.00
2018-08-20T06:01:24.359Z,80.00
2018-08-20T06:02:30.899Z,92.00
2018-08-20T06:03:35.396Z,100.00
2018-08-20T06:04:40.894Z,96.00
2018-08-20T06:05:47.451Z,88.00
2018-08-20T06:06:51.976Z,92.00
2018-08-20T06:07:58.519Z,80.00
2018-08-20T06:09:03.029Z,84.00
2018-08-20T06:10:08.503Z,84.00
2018-08-20T06:11:15.043Z,44.00
2018-08-20T06:12:20.171Z,44.00
2018-08-20T06:13:26.097Z,48.00
2018-08-20T06:14:30.590Z,48.00
2018-08-20T06:15:36.081Z,48.00
2018-08-20T06:16:42.635Z,56.00
2018-08-20T06:17:47.161Z,64.00
2018-08-20T06:18:53.665Z,68.00
2018-08-20T06:19:58.174Z,64.00
2018-08-20T06:21:03.681Z,60.00
2018-08-20T06:22:10.214Z,56.00
2018-08-20T06:23:14.707Z,60.00
2018-08-20T06:24:21.255Z,68.00
2018-08-20T06:25:25.785Z,72.00
2018-08-20T06:26:31.280Z,64.00
2018-08-20T06:27:37.809Z,68.00
2018-08-20T06:28:42.368Z,64.00
2018-08-20T06:29:48.825Z,68.00
2018-08-20T06:30:53.349Z,60.00
2018-08-20T06:31:58.873Z,60.00
2018-08-20T06:33:05.387Z,56.00
2018-08-20T06:34:09.895Z,48.00
2018-08-20T06:35:16.460Z,44.00
2018-08-20T06:36:20.936Z,44.00
2018-08-20T06:37:26.444Z,48.00
2018-08-20T06:38:32.991Z,44.00
2018-08-20T06:39:37.503Z,36.00
2018-08-20T06:40:44.021Z,28.00
2018-08-20T06:41:50.654Z,24.00
2018-08-20T06:42:54.019Z,28.00
2018-08-20T06:44:00.577Z,36.00
2018-08-20T06:45:05.064Z,40.00
2018-08-20T06:46:11.645Z,40.00
2018-08-20T06:47:16.128Z,40.00
2018-08-20T06:48:21.632Z,48.00
2018-08-20T06:49:28.176Z,56.00
2018-08-20T06:50:32.680Z,52.00
2018-08-20T06:51:39.199Z,44.00
2018-08-20T06:52:43.706Z,36.00
2018-08-20T06:53:49.228Z,32.00
2018-08-20T06:54:55.739Z,36.00
2018-08-20T06:56:00.236Z,44.00
2018-08-20T06:57:06.786Z,40.00
2018-08-20T06:58:11.282Z,32.00
2018-08-20T06:59:16.810Z,32.00
2018-08-20T07:00:23.339Z,28.00
2018-08-20T07:01:27.836Z,28.00
2018-08-20T07:02:34.379Z,32.00
2018-08-20T07:03:38.899Z,76.00
2018-08-20T07:04:44.396Z,80.00
2018-08-20T07:05:50.936Z,80.00
2018-08-20T07:06:55.431Z,84.00
2018-08-20T07:08:01.974Z,104.00
2018-08-20T07:09:06.483Z,104.00
2018-08-20T07:10:11.982Z,104.00
2018-08-20T07:11:18.564Z,100.00
2018-08-20T07:12:23.036Z,108.00
2018-08-20T07:13:29.557Z,124.00
2018-08-20T07:14:34.051Z,136.00
2018-08-20T07:15:39.569Z,140.00
2018-08-20T07:16:46.095Z,120.00
2018-08-20T07:17:50.610Z,96.00
2018-08-20T07:18:57.130Z,72.00
2018-08-20T07:20:01.637Z,64.00
2018-08-20T07:21:07.159Z,72.00
2018-08-20T07:22:13.693Z,104.00
2018-08-20T07:23:18.211Z,108.00
2018-08-20T07:24:24.719Z,92.00
2018-08-20T07:25:29.214Z,100.00
2018-08-20T07:26:34.755Z,128.00
2018-08-20T07:27:41.285Z,128.00
2018-08-20T07:28:45.776Z,132.00
2018-08-20T07:29:52.306Z,124.00
2018-08-20T07:30:56.825Z,112.00
2018-08-20T07:32:02.343Z,112.00
2018-08-20T07:33:08.890Z,116.00
2018-08-20T07:34:13.368Z,112.00
2018-08-20T07:35:19.897Z,108.00
2018-08-20T07:36:24.391Z,108.00
2018-08-20T07:37:29.903Z,116.00
2018-08-20T07:38:36.464Z,120.00
2018-08-20T07:39:40.957Z,132.00
2018-08-20T07:40:47.493Z,164.00
2018-08-20T07:41:51.991Z,196.00
2018-08-20T07:42:57.518Z,204.00
2018-08-20T07:44:04.065Z,200.00
2018-08-20T07:45:08.559Z,208.00
2018-08-20T07:46:15.094Z,204.00
2018-08-20T07:47:19.588Z,204.00
2018-08-20T07:48:25.077Z,204.00
2018-08-20T07:49:31.614Z,204.00
2018-08-20T07:50:36.135Z,220.00
2018-08-20T07:51:42.678Z,232.00
2018-08-20T07:52:47.171Z,252.00
2018-08-20T07:53:52.677Z,280.00
2018-08-20T07:54:59.208Z,212.00
2018-08-20T07:56:03.741Z,300.00
2018-08-20T07:57:10.249Z,332.00
2018-08-20T07:58:14.763Z,340.00
2018-08-20T07:59:20.261Z,316.00
2018-08-20T08:00:26.820Z,328.00
2018-08-20T08:01:31.321Z,304.00
2018-08-20T08:02:37.832Z,336.00
2018-08-20T08:03:42.351Z,300.00
2018-08-20T08:04:47.854Z,316.00
2018-08-20T08:05:54.396Z,264.00
2018-08-20T08:06:58.920Z,280.00
2018-08-20T08:08:05.432Z,268.00
2018-08-20T08:09:09.929Z,244.00
2018-08-20T08:10:15.452Z,236.00
2018-08-20T08:11:21.981Z,240.00
2018-08-20T08:12:26.474Z,228.00
2018-08-20T08:13:33.026Z,244.00
2018-08-20T08:14:37.532Z,216.00
2018-08-20T08:15:43.057Z,208.00
2018-08-20T08:16:49.564Z,220.00
2018-08-20T08:17:54.073Z,220.00
2018-08-20T08:19:00.618Z,212.00
2018-08-20T08:20:05.115Z,184.00
2018-08-20T08:21:10.622Z,184.00
2018-08-20T08:22:17.152Z,188.00
2018-08-20T08:23:21.659Z,180.00
2018-08-20T08:24:28.175Z,204.00
2018-08-20T08:25:32.697Z,212.00
2018-08-20T08:26:38.237Z,216.00
2018-08-20T08:27:44.755Z,228.00
2018-08-20T08:28:49.245Z,248.00
2018-08-20T08:29:55.774Z,252.00
2018-08-20T08:31:00.273Z,256.00
2018-08-20T08:32:05.803Z,280.00
2018-08-20T08:33:12.321Z,244.00
2018-08-20T08:34:16.858Z,232.00
2018-08-20T08:35:23.372Z,240.00
2018-08-20T08:36:27.872Z,260.00
2018-08-20T08:37:33.420Z,252.00
2018-08-20T08:38:39.909Z,256.00
2018-08-20T08:39:44.431Z,248.00
2018-08-20T08:40:50.962Z,292.00
2018-08-20T08:41:55.494Z,288.00
2018-08-20T08:43:00.996Z,308.00
2018-08-20T08:44:07.514Z,288.00
2018-08-20T08:45:11.999Z,300.00
2018-08-20T08:46:18.531Z,308.00
2018-08-20T08:47:23.070Z,276.00
2018-08-20T08:48:28.557Z,280.00
2018-08-20T08:49:35.093Z,272.00
2018-08-20T08:50:39.580Z,256.00
2018-08-20T08:51:46.128Z,248.00
2018-08-20T08:52:50.631Z,260.00
2018-08-20T08:53:56.152Z,304.00
2018-08-20T08:55:02.666Z,280.00
2018-08-20T08:56:07.161Z,264.00
2018-08-20T08:57:13.730Z,260.00
2018-08-20T08:58:18.224Z,252.00
2018-08-20T08:59:23.752Z,264.00
2018-08-20T09:00:30.304Z,276.00
2018-08-20T09:01:34.769Z,296.00
2018-08-20T09:02:41.289Z,268.00
2018-08-20T09:03:45.822Z,300.00
2018-08-20T09:04:51.363Z,348.00
2018-08-20T09:05:57.857Z,376.00
2018-08-20T09:07:02.363Z,340.00
2018-08-20T09:08:08.898Z,316.00
2018-08-20T09:09:13.383Z,312.00
2018-08-20T09:10:18.917Z,276.00
2018-08-20T09:11:25.452Z,268.00
2018-08-20T09:12:29.981Z,268.00
2018-08-20T09:13:36.508Z,244.00
2018-08-20T09:14:40.977Z,284.00
2018-08-20T09:15:46.536Z,272.00
2018-08-20T09:16:53.047Z,300.00
2018-08-20T09:17:57.556Z,292.00
2018-08-20T09:19:04.077Z,300.00
2018-08-20T09:20:08.566Z,304.00
2018-08-20T09:21:14.095Z,304.00
2018-08-20T09:22:20.625Z,276.00
2018-08-20T09:23:25.105Z,268.00
2018-08-20T09:24:31.657Z,304.00
2018-08-20T09:25:36.164Z,332.00
2018-08-20T09:26:41.681Z,324.00
2018-08-20T09:27:48.216Z,308.00
2018-08-20T09:28:52.727Z,316.00
2018-08-20T09:29:59.241Z,324.00
2018-08-20T09:31:03.726Z,292.00
2018-08-20T09:32:09.316Z,276.00
2018-08-20T09:33:15.786Z,260.00
2018-08-20T09:34:20.340Z,236.00
2018-08-20T09:35:26.844Z,248.00
2018-08-20T09:36:31.365Z,264.00
2018-08-20T09:37:36.872Z,256.00
2018-08-20T09:38:43.390Z,272.00
2018-08-20T09:39:47.914Z,260.00
2018-08-20T09:40:54.417Z,292.00
2018-08-20T09:41:58.944Z,316.00
2018-08-20T09:43:04.466Z,352.00
2018-08-20T09:44:10.970Z,368.00
2018-08-20T09:45:15.462Z,380.00
2018-08-20T09:46:22.016Z,336.00
2018-08-20T09:47:26.500Z,312.00
2018-08-20T09:48:32.043Z,336.00
2018-08-20T09:49:38.565Z,340.00
2018-08-20T09:50:43.062Z,392.00
2018-08-20T09:51:49.622Z,336.00
2018-08-20T09:52:54.107Z,348.00
2018-08-20T09:53:59.644Z,348.00
2018-08-20T09:55:06.139Z,372.00
2018-08-20T09:56:10.658Z,352.00
2018-08-20T09:57:17.184Z,336.00
2018-08-20T09:58:21.702Z,384.00
2018-08-20T09:59:27.215Z,364.00
2018-08-20T10:00:33.754Z,372.00
2018-08-20T10:01:38.238Z,376.00
2018-08-20T10:02:44.773Z,396.00
2018-08-20T10:03:49.277Z,396.00
2018-08-20T10:04:54.822Z,424.00
2018-08-20T10:06:01.317Z,356.00
2018-08-20T10:07:05.826Z,308.00
2018-08-20T10:08:12.355Z,324.00
2018-08-20T10:09:16.878Z,368.00
2018-08-20T10:10:22.404Z,428.00
2018-08-20T10:11:28.945Z,460.00
2018-08-20T10:12:33.440Z,484.00
2018-08-20T10:13:39.956Z,444.00
2018-08-20T10:14:44.497Z,504.00
2018-08-20T10:15:49.987Z,624.00
2018-08-20T10:16:56.486Z,624.00
2018-08-20T10:18:01.002Z,736.00
2018-08-20T10:19:07.558Z,736.00
2018-08-20T10:20:12.060Z,688.00
2018-08-20T10:21:17.594Z,564.00
2018-08-20T10:22:24.092Z,448.00
2018-08-20T10:23:28.611Z,560.00
2018-08-20T10:24:35.155Z,648.00
2018-08-20T10:25:39.633Z,624.00
2018-08-20T10:26:45.178Z,624.00
2018-08-20T10:27:51.720Z,640.00
2018-08-20T10:28:56.206Z,712.00
2018-08-20T10:30:02.723Z,800.00
2018-08-20T10:31:07.216Z,852.00
2018-08-20T10:32:12.815Z,820.00
2018-08-20T10:33:19.273Z,804.00
2018-08-20T10:34:23.781Z,804.00
2018-08-20T10:35:30.328Z,784.00
2018-08-20T10:36:34.840Z,708.00
2018-08-20T10:37:40.357Z,664.00
2018-08-20T10:38:46.897Z,636.00
2018-08-20T10:39:51.380Z,608.00
2018-08-20T10:40:57.932Z,544.00
2018-08-20T10:42:02.412Z,440.00
2018-08-20T10:43:07.953Z,380.00
2018-08-20T10:44:17.318Z,336.00
2018-08-20T10:45:19.016Z,408.00
2018-08-20T10:46:25.523Z,540.00
2018-08-20T10:47:30.026Z,564.00
2018-08-20T10:48:35.548Z,596.00
2018-08-20T10:49:42.047Z,608.00
2018-08-20T10:50:46.565Z,640.00
2018-08-20T10:51:53.117Z,668.00
2018-08-20T10:52:57.606Z,680.00
2018-08-20T10:54:03.134Z,688.00
2018-08-20T10:55:09.662Z,736.00
2018-08-20T10:56:14.169Z,800.00
2018-08-20T10:57:20.672Z,840.00
2018-08-20T10:58:25.207Z,912.00
2018-08-20T10:59:30.706Z,976.00
2018-08-20T11:00:37.242Z,1028.00
2018-08-20T11:01:41.746Z,1056.00
2018-08-20T11:02:48.273Z,1112.00
2018-08-20T11:03:52.792Z,1160.00
2018-08-20T11:04:58.333Z,1172.00
2018-08-20T11:06:04.872Z,1196.00
2018-08-20T11:07:09.390Z,1280.00
2018-08-20T11:08:15.916Z,1240.00
2018-08-20T11:09:20.408Z,1236.00
2018-08-20T11:10:25.910Z,1220.00
2018-08-20T11:11:32.403Z,1076.00
2018-08-20T11:12:36.940Z,992.00
2018-08-20T11:13:43.491Z,980.00
2018-08-20T11:14:48.005Z,968.00
2018-08-20T11:15:53.517Z,1044.00
2018-08-20T11:17:00.037Z,1052.00
2018-08-20T11:18:04.552Z,992.00
2018-08-20T11:19:11.074Z,992.00
2018-08-20T11:20:15.582Z,972.00
2018-08-20T11:21:21.092Z,1008.00
2018-08-20T11:22:27.641Z,980.00
2018-08-20T11:23:32.119Z,1064.00
2018-08-20T11:24:38.661Z,1028.00
2018-08-20T11:25:43.190Z,1144.00
2018-08-20T11:26:48.717Z,1052.00
2018-08-20T11:27:56.611Z,1096.00
2018-08-20T11:28:59.728Z,1024.00
2018-08-20T11:30:06.328Z,976.00
2018-08-20T11:31:10.795Z,988.00
2018-08-20T11:32:16.301Z,988.00
2018-08-20T11:33:22.818Z,984.00
2018-08-20T11:34:27.344Z,896.00
2018-08-20T11:35:33.867Z,896.00
2018-08-20T11:36:38.365Z,928.00
2018-08-20T11:37:43.925Z,940.00
2018-08-20T11:38:50.411Z,964.00
2018-08-20T11:39:54.940Z,1016.00
2018-08-20T11:41:01.467Z,1088.00
2018-08-20T11:42:05.950Z,1072.00
2018-08-20T11:43:11.524Z,992.00
2018-08-20T11:44:18.004Z,968.00
2018-08-20T11:45:22.506Z,864.00
2018-08-20T11:46:29.069Z,784.00
2018-08-20T11:47:33.560Z,604.00
2018-08-20T11:48:39.075Z,624.00
2018-08-20T11:49:45.617Z,612.00
2018-08-20T11:50:50.131Z,648.00
2018-08-20T11:51:56.650Z,604.00
2018-08-20T11:53:01.170Z,596.00
2018-08-20T11:54:06.688Z,580.00
2018-08-20T11:55:13.184Z,560.00
2018-08-20T11:56:17.724Z,604.00
2018-08-20T11:57:24.247Z,596.00
2018-08-20T11:58:28.751Z,604.00
2018-08-20T11:59:34.426Z,588.00
2018-08-20T12:00:40.790Z,564.00
2018-08-20T12:01:45.388Z,552.00
2018-08-20T12:02:51.871Z,540.00
2018-08-20T12:03:56.370Z,528.00
2018-08-20T12:05:01.875Z,584.00
2018-08-20T12:06:08.421Z,608.00
2018-08-20T12:07:12.946Z,596.00
2018-08-20T12:08:19.434Z,576.00
2018-08-20T12:09:23.958Z,588.00
2018-08-20T12:10:29.463Z,620.00
2018-08-20T12:11:35.997Z,652.00
2018-08-20T12:12:40.533Z,680.00
2018-08-20T12:13:47.032Z,736.00
2018-08-20T12:14:51.547Z,704.00
2018-08-20T12:15:57.080Z,660.00
2018-08-20T12:17:03.638Z,576.00
2018-08-20T12:18:08.152Z,564.00
2018-08-20T12:19:14.651Z,544.00
2018-08-20T12:20:19.131Z,516.00
2018-08-20T12:21:24.664Z,464.00
2018-08-20T12:22:31.300Z,472.00
2018-08-20T12:23:35.723Z,436.00
2018-08-20T12:24:42.232Z,328.00
2018-08-20T12:25:47.736Z,312.00
2018-08-20T12:26:52.251Z,224.00
2018-08-20T12:27:58.785Z,336.00
2018-08-20T12:29:03.293Z,384.00
2018-08-20T12:30:09.846Z,424.00
2018-08-20T12:31:14.358Z,436.00
2018-08-20T12:32:19.886Z,416.00
2018-08-20T12:33:26.396Z,396.00
2018-08-20T12:34:30.890Z,364.00
2018-08-20T12:35:37.414Z,328.00
2018-08-20T12:36:41.913Z,324.00
2018-08-20T12:37:47.476Z,268.00
2018-08-20T12:38:53.978Z,228.00
2018-08-20T12:39:58.588Z,220.00
2018-08-20T12:41:05.011Z,220.00
2018-08-20T12:42:09.523Z,212.00
2018-08-20T12:43:15.064Z,180.00
2018-08-20T12:44:21.568Z,160.00
2018-08-20T12:45:26.100Z,152.00
2018-08-20T12:46:32.610Z,140.00
2018-08-20T12:47:37.153Z,116.00
2018-08-20T13:24:35.921Z,444.00
2018-08-20T13:25:41.430Z,476.00
2018-08-20T13:27:39.952Z,456.00
2018-08-20T13:28:45.451Z,408.00
2018-08-20T13:30:44.073Z,424.00
2018-08-20T13:31:49.465Z,420.00
2018-08-20T13:33:47.989Z,440.00
2018-08-20T13:34:53.489Z,440.00
2018-08-20T13:36:51.999Z,464.00
2018-08-20T13:37:57.506Z,448.00
2018-08-20T13:39:56.024Z,468.00
2018-08-20T13:41:01.529Z,484.00
2018-08-20T13:43:00.043Z,492.00
2018-08-20T13:44:05.638Z,492.00
2018-08-20T13:45:11.063Z,512.00
2018-08-20T13:46:16.584Z,576.00
2018-08-20T13:47:22.100Z,600.00
2018-08-20T13:48:27.614Z,608.00
2018-08-20T13:49:33.130Z,604.00
2018-08-20T13:50:38.640Z,596.00
2018-08-20T13:51:44.166Z,620.00
2018-08-20T13:52:49.686Z,628.00
2018-08-20T13:53:55.199Z,616.00
2018-08-20T13:55:00.720Z,632.00
2018-08-20T13:56:06.241Z,640.00
2018-08-20T13:57:11.752Z,656.00
2018-08-20T13:58:17.269Z,640.00
2018-08-20T13:59:22.807Z,612.00
2018-08-20T14:00:28.305Z,600.00
2018-08-20T14:01:33.823Z,580.00
2018-08-20T14:02:39.341Z,596.00
2018-08-20T14:03:44.864Z,608.00
2018-08-20T14:04:50.382Z,588.00
2018-08-20T14:05:55.893Z,584.00
2018-08-20T14:07:01.411Z,532.00
2018-08-20T14:08:06.935Z,508.00
2018-08-20T14:09:12.449Z,496.00
2018-08-20T14:10:17.965Z,508.00
2018-08-20T14:11:23.483Z,524.00
2018-08-20T14:12:29.006Z,580.00
2018-08-20T14:13:34.515Z,604.00
2018-08-20T14:14:40.043Z,628.00
2018-08-20T14:15:45.736Z,652.00
2018-08-20T14:16:51.076Z,704.00
2018-08-20T14:17:56.600Z,728.00
2018-08-20T14:19:02.108Z,708.00
2018-08-20T14:20:07.636Z,720.00
2018-08-20T14:21:13.148Z,756.00
2018-08-20T14:22:18.669Z,696.00
2018-08-20T14:23:24.180Z,608.00
2018-08-20T14:24:29.713Z,564.00
2018-08-20T14:25:35.231Z,544.00
2018-08-20T14:26:40.738Z,516.00
2018-08-20T14:27:46.256Z,496.00
2018-08-20T14:28:51.784Z,476.00
2018-08-20T14:29:57.297Z,488.00
2018-08-20T14:31:02.823Z,500.00
2018-08-20T14:32:08.336Z,540.00
2018-08-20T14:33:13.856Z,540.00
2018-08-20T14:34:19.374Z,496.00
2018-08-20T14:35:24.892Z,448.00
2018-08-20T14:36:30.491Z,412.00
2018-08-20T14:37:35.927Z,392.00
2018-08-20T14:38:41.467Z,364.00
2018-08-20T14:39:46.971Z,320.00